sensor_id;sensor_type;location;lat;lon;timestamp;P1;durP1;ratioP1;P2;durP2;ratioP2
13455;SDS011;6800;50.940;6.940;2024-01-15T00:01:30;30.03;;;20.03;;
13455;SDS011;6800;50.940;6.940;2024-01-15T00:05:31;28.10;;;19.73;;
13455;SDS011;6800;50.940;6.940;2024-01-15T00:09:33;33.07;;;19.73;;
13455;SDS011;6800;50.940;6.940;2024-01-15T00:13:35;31.87;;;21.17;;
13455;SDS011;6800;50.940;6.940;2024-01-15T00:17:37;32.17;;;21.77;;
13455;SDS011;6800;50.940;6.940;2024-01-15T00:21:40;36.17;;;22.87;;
13455;SDS011;6800;50.940;6.940;2024-01-15T00:25:41;35.70;;;21.27;;
13455;SDS011;6800;50.940;6.940;2024-01-15T00:29:43;34.07;;;20.93;;
13455;SDS011;6800;50.940;6.940;2024-01-15T00:33:44;35.80;;;21.50;;
13455;SDS011;6800;50.940;6.940;2024-01-15T00:37:46;40.73;;;24.17;;
13455;SDS011;6800;50.940;6.940;2024-01-15T00:41:48;36.53;;;22.77;;
13455;SDS011;6800;50.940;6.940;2024-01-15T00:45:49;38.67;;;22.90;;
13455;SDS011;6800;50.940;6.940;2024-01-15T00:49:52;44.93;;;25.37;;
13455;SDS011;6800;50.940;6.940;2024-01-15T00:53:54;45.47;;;26.30;;
13455;SDS011;6800;50.940;6.940;2024-01-15T00:57:55;42.33;;;24.87;;
13455;SDS011;6800;50.940;6.940;2024-01-15T01:01:57;41.63;;;25.67;;
13455;SDS011;6800;50.940;6.940;2024-01-15T01:06:02;47.60;;;25.93;;
13455;SDS011;6800;50.940;6.940;2024-01-15T01:10:04;45.43;;;25.83;;
13455;SDS011;6800;50.940;6.940;2024-01-15T01:14:06;47.93;;;25.50;;
13455;SDS011;6800;50.940;6.940;2024-01-15T01:18:07;43.63;;;25.00;;
13455;SDS011;6800;50.940;6.940;2024-01-15T01:22:10;45.43;;;25.00;;
13455;SDS011;6800;50.940;6.940;2024-01-15T01:26:15;45.57;;;25.73;;
13455;SDS011;6800;50.940;6.940;2024-01-15T01:30:17;44.20;;;25.80;;
13455;SDS011;6800;50.940;6.940;2024-01-15T01:34:18;46.27;;;25.37;;
13455;SDS011;6800;50.940;6.940;2024-01-15T01:38:21;43.10;;;24.37;;
13455;SDS011;6800;50.940;6.940;2024-01-15T01:42:23;43.47;;;25.83;;
13455;SDS011;6800;50.940;6.940;2024-01-15T01:46:26;45.93;;;25.57;;
13455;SDS011;6800;50.940;6.940;2024-01-15T01:50:29;45.73;;;25.70;;
13455;SDS011;6800;50.940;6.940;2024-01-15T01:54:34;46.43;;;26.37;;
13455;SDS011;6800;50.940;6.940;2024-01-15T01:58:37;46.23;;;26.93;;
13455;SDS011;6800;50.940;6.940;2024-01-15T02:02:39;47.43;;;27.77;;
13455;SDS011;6800;50.940;6.940;2024-01-15T02:06:42;50.07;;;25.57;;
13455;SDS011;6800;50.940;6.940;2024-01-15T02:10:43;51.40;;;27.70;;
13455;SDS011;6800;50.940;6.940;2024-01-15T02:14:45;48.47;;;28.93;;
13455;SDS011;6800;50.940;6.940;2024-01-15T02:18:46;47.53;;;27.93;;
13455;SDS011;6800;50.940;6.940;2024-01-15T02:22:48;52.07;;;27.20;;
13455;SDS011;6800;50.940;6.940;2024-01-15T02:26:50;50.57;;;29.03;;
13455;SDS011;6800;50.940;6.940;2024-01-15T02:30:53;54.37;;;27.77;;
13455;SDS011;6800;50.940;6.940;2024-01-15T02:34:55;48.63;;;27.63;;
13455;SDS011;6800;50.940;6.940;2024-01-15T02:38:57;48.10;;;25.97;;
13455;SDS011;6800;50.940;6.940;2024-01-15T02:42:59;44.70;;;26.30;;
13455;SDS011;6800;50.940;6.940;2024-01-15T02:47:03;54.63;;;28.60;;
13455;SDS011;6800;50.940;6.940;2024-01-15T02:51:05;48.53;;;27.17;;
13455;SDS011;6800;50.940;6.940;2024-01-15T02:55:06;53.07;;;28.67;;
13455;SDS011;6800;50.940;6.940;2024-01-15T02:59:09;48.53;;;26.90;;
13455;SDS011;6800;50.940;6.940;2024-01-15T03:03:12;45.63;;;26.30;;
13455;SDS011;6800;50.940;6.940;2024-01-15T03:07:15;47.33;;;26.77;;
13455;SDS011;6800;50.940;6.940;2024-01-15T03:11:17;44.00;;;25.63;;
13455;SDS011;6800;50.940;6.940;2024-01-15T03:15:19;40.60;;;25.80;;
13455;SDS011;6800;50.940;6.940;2024-01-15T03:19:20;48.10;;;25.27;;
13455;SDS011;6800;50.940;6.940;2024-01-15T03:23:22;40.17;;;23.80;;
13455;SDS011;6800;50.940;6.940;2024-01-15T03:27:24;39.57;;;24.57;;
13455;SDS011;6800;50.940;6.940;2024-01-15T03:31:25;35.40;;;22.70;;
13455;SDS011;6800;50.940;6.940;2024-01-15T03:35:27;38.67;;;24.07;;
13455;SDS011;6800;50.940;6.940;2024-01-15T03:39:30;44.50;;;25.53;;
13455;SDS011;6800;50.940;6.940;2024-01-15T03:43:32;39.57;;;26.17;;
13455;SDS011;6800;50.940;6.940;2024-01-15T03:47:34;44.00;;;25.83;;
13455;SDS011;6800;50.940;6.940;2024-01-15T03:51:37;36.30;;;24.90;;
13455;SDS011;6800;50.940;6.940;2024-01-15T03:55:39;42.13;;;26.17;;
13455;SDS011;6800;50.940;6.940;2024-01-15T03:59:40;41.27;;;26.57;;
13455;SDS011;6800;50.940;6.940;2024-01-15T04:03:43;40.73;;;25.83;;
13455;SDS011;6800;50.940;6.940;2024-01-15T04:07:45;41.47;;;24.90;;
13455;SDS011;6800;50.940;6.940;2024-01-15T04:11:46;42.60;;;25.67;;
13455;SDS011;6800;50.940;6.940;2024-01-15T04:15:48;36.83;;;23.97;;
13455;SDS011;6800;50.940;6.940;2024-01-15T04:19:50;37.80;;;24.93;;
13455;SDS011;6800;50.940;6.940;2024-01-15T04:23:52;36.23;;;23.90;;
13455;SDS011;6800;50.940;6.940;2024-01-15T04:27:53;34.90;;;23.10;;
13455;SDS011;6800;50.940;6.940;2024-01-15T04:31:55;34.80;;;23.47;;
13455;SDS011;6800;50.940;6.940;2024-01-15T04:36:00;32.33;;;22.17;;
13455;SDS011;6800;50.940;6.940;2024-01-15T04:40:02;27.80;;;19.97;;
13455;SDS011;6800;50.940;6.940;2024-01-15T04:44:06;33.00;;;20.00;;
13455;SDS011;6800;50.940;6.940;2024-01-15T04:48:08;28.23;;;19.23;;
13455;SDS011;6800;50.940;6.940;2024-01-15T04:52:11;27.80;;;18.67;;
13455;SDS011;6800;50.940;6.940;2024-01-15T04:56:14;24.43;;;18.43;;
13455;SDS011;6800;50.940;6.940;2024-01-15T05:00:15;23.73;;;16.90;;
13455;SDS011;6800;50.940;6.940;2024-01-15T05:04:17;20.80;;;16.93;;
13455;SDS011;6800;50.940;6.940;2024-01-15T05:08:20;24.60;;;17.50;;
13455;SDS011;6800;50.940;6.940;2024-01-15T05:12:22;26.73;;;17.87;;
13455;SDS011;6800;50.940;6.940;2024-01-15T05:16:24;22.90;;;16.50;;
13455;SDS011;6800;50.940;6.940;2024-01-15T05:20:25;24.33;;;18.07;;
13455;SDS011;6800;50.940;6.940;2024-01-15T05:24:27;24.57;;;16.70;;
13455;SDS011;6800;50.940;6.940;2024-01-15T05:28:30;22.93;;;17.23;;
13455;SDS011;6800;50.940;6.940;2024-01-15T05:32:33;24.93;;;17.33;;
13455;SDS011;6800;50.940;6.940;2024-01-15T05:36:34;22.63;;;17.27;;
13455;SDS011;6800;50.940;6.940;2024-01-15T05:40:36;21.70;;;15.73;;
13455;SDS011;6800;50.940;6.940;2024-01-15T05:44:37;21.90;;;15.10;;
13455;SDS011;6800;50.940;6.940;2024-01-15T05:48:40;25.10;;;15.70;;
13455;SDS011;6800;50.940;6.940;2024-01-15T05:52:44;21.03;;;14.87;;
13455;SDS011;6800;50.940;6.940;2024-01-15T05:56:45;22.53;;;15.37;;
13455;SDS011;6800;50.940;6.940;2024-01-15T06:00:47;33.40;;;16.00;;
13455;SDS011;6800;50.940;6.940;2024-01-15T06:04:51;26.40;;;15.37;;
13455;SDS011;6800;50.940;6.940;2024-01-15T06:08:53;25.73;;;16.43;;
13455;SDS011;6800;50.940;6.940;2024-01-15T06:12:54;32.70;;;16.77;;
13455;SDS011;6800;50.940;6.940;2024-01-15T06:16:56;32.63;;;17.87;;
13455;SDS011;6800;50.940;6.940;2024-01-15T06:20:58;50.03;;;20.37;;
13455;SDS011;6800;50.940;6.940;2024-01-15T06:25:00;32.07;;;19.27;;
13455;SDS011;6800;50.940;6.940;2024-01-15T06:29:02;25.63;;;17.23;;
13455;SDS011;6800;50.940;6.940;2024-01-15T06:33:04;28.17;;;17.10;;
13455;SDS011;6800;50.940;6.940;2024-01-15T06:37:06;27.23;;;17.53;;
13455;SDS011;6800;50.940;6.940;2024-01-15T06:41:08;31.80;;;19.00;;
13455;SDS011;6800;50.940;6.940;2024-01-15T06:45:10;69.17;;;22.57;;
13455;SDS011;6800;50.940;6.940;2024-01-15T06:49:12;28.97;;;17.60;;
13455;SDS011;6800;50.940;6.940;2024-01-15T06:53:14;29.13;;;17.90;;
13455;SDS011;6800;50.940;6.940;2024-01-15T06:57:18;24.43;;;18.10;;
13455;SDS011;6800;50.940;6.940;2024-01-15T07:01:25;39.33;;;20.13;;
13455;SDS011;6800;50.940;6.940;2024-01-15T07:05:29;20.67;;;16.73;;
13455;SDS011;6800;50.940;6.940;2024-01-15T07:09:33;29.83;;;17.50;;
13455;SDS011;6800;50.940;6.940;2024-01-15T07:13:36;74.07;;;20.23;;
13455;SDS011;6800;50.940;6.940;2024-01-15T07:17:38;81.67;;;21.00;;
13455;SDS011;6800;50.940;6.940;2024-01-15T07:21:41;27.90;;;16.30;;
13455;SDS011;6800;50.940;6.940;2024-01-15T07:25:46;64.80;;;18.93;;
13455;SDS011;6800;50.940;6.940;2024-01-15T07:29:49;42.30;;;15.80;;
13455;SDS011;6800;50.940;6.940;2024-01-15T07:33:50;18.57;;;14.80;;
13455;SDS011;6800;50.940;6.940;2024-01-15T07:37:53;37.13;;;16.50;;
13455;SDS011;6800;50.940;6.940;2024-01-15T07:41:57;47.33;;;18.53;;
13455;SDS011;6800;50.940;6.940;2024-01-15T07:45:58;29.20;;;17.47;;
13455;SDS011;6800;50.940;6.940;2024-01-15T07:50:00;21.60;;;16.43;;
13455;SDS011;6800;50.940;6.940;2024-01-15T07:54:06;22.37;;;16.47;;
13455;SDS011;6800;50.940;6.940;2024-01-15T07:58:09;28.63;;;16.53;;
13455;SDS011;6800;50.940;6.940;2024-01-15T08:02:17;23.00;;;16.97;;
13455;SDS011;6800;50.940;6.940;2024-01-15T08:06:18;26.97;;;17.53;;
13455;SDS011;6800;50.940;6.940;2024-01-15T08:10:20;25.73;;;16.70;;
13455;SDS011;6800;50.940;6.940;2024-01-15T08:14:24;39.00;;;20.47;;
13455;SDS011;6800;50.940;6.940;2024-01-15T08:18:26;34.10;;;20.47;;
13455;SDS011;6800;50.940;6.940;2024-01-15T08:22:28;31.77;;;19.87;;
13455;SDS011;6800;50.940;6.940;2024-01-15T08:26:32;33.40;;;19.00;;
13455;SDS011;6800;50.940;6.940;2024-01-15T08:30:35;28.77;;;17.97;;
13455;SDS011;6800;50.940;6.940;2024-01-15T08:34:38;28.10;;;17.63;;
13455;SDS011;6800;50.940;6.940;2024-01-15T08:38:39;28.67;;;18.47;;
13455;SDS011;6800;50.940;6.940;2024-01-15T08:42:41;35.53;;;19.50;;
13455;SDS011;6800;50.940;6.940;2024-01-15T08:46:44;27.67;;;18.27;;
13455;SDS011;6800;50.940;6.940;2024-01-15T08:50:46;36.50;;;19.20;;
13455;SDS011;6800;50.940;6.940;2024-01-15T08:54:49;31.70;;;19.90;;
13455;SDS011;6800;50.940;6.940;2024-01-15T08:58:56;34.00;;;18.27;;
13455;SDS011;6800;50.940;6.940;2024-01-15T09:02:58;27.80;;;18.90;;
13455;SDS011;6800;50.940;6.940;2024-01-15T09:07:00;28.27;;;17.77;;
13455;SDS011;6800;50.940;6.940;2024-01-15T09:11:01;24.17;;;18.30;;
13455;SDS011;6800;50.940;6.940;2024-01-15T09:15:05;27.17;;;17.43;;
13455;SDS011;6800;50.940;6.940;2024-01-15T09:19:07;20.43;;;15.10;;
13455;SDS011;6800;50.940;6.940;2024-01-15T09:23:12;20.40;;;14.67;;
13455;SDS011;6800;50.940;6.940;2024-01-15T09:27:13;19.13;;;16.10;;
13455;SDS011;6800;50.940;6.940;2024-01-15T09:31:15;22.30;;;14.90;;
13455;SDS011;6800;50.940;6.940;2024-01-15T09:35:18;18.23;;;15.13;;
13455;SDS011;6800;50.940;6.940;2024-01-15T09:39:23;18.63;;;14.50;;
13455;SDS011;6800;50.940;6.940;2024-01-15T09:43:28;24.03;;;14.40;;
13455;SDS011;6800;50.940;6.940;2024-01-15T09:47:30;17.43;;;15.47;;
13455;SDS011;6800;50.940;6.940;2024-01-15T09:51:32;18.30;;;14.47;;
13455;SDS011;6800;50.940;6.940;2024-01-15T09:55:37;15.83;;;13.03;;
13455;SDS011;6800;50.940;6.940;2024-01-15T09:59:39;12.93;;;11.50;;
13455;SDS011;6800;50.940;6.940;2024-01-15T10:03:46;13.43;;;11.20;;
13455;SDS011;6800;50.940;6.940;2024-01-15T10:07:48;14.47;;;11.07;;
13455;SDS011;6800;50.940;6.940;2024-01-15T10:11:52;15.10;;;11.73;;
13455;SDS011;6800;50.940;6.940;2024-01-15T10:15:54;12.27;;;10.40;;
13455;SDS011;6800;50.940;6.940;2024-01-15T10:19:55;10.53;;;9.43;;
13455;SDS011;6800;50.940;6.940;2024-01-15T10:23:59;23.37;;;11.90;;
13455;SDS011;6800;50.940;6.940;2024-01-15T10:28:03;11.20;;;9.67;;
13455;SDS011;6800;50.940;6.940;2024-01-15T10:32:08;17.13;;;11.40;;
13455;SDS011;6800;50.940;6.940;2024-01-15T10:36:10;17.83;;;9.90;;
13455;SDS011;6800;50.940;6.940;2024-01-15T10:40:14;10.83;;;9.43;;
13455;SDS011;6800;50.940;6.940;2024-01-15T10:44:16;15.13;;;10.73;;
13455;SDS011;6800;50.940;6.940;2024-01-15T10:48:19;16.37;;;10.23;;
13455;SDS011;6800;50.940;6.940;2024-01-15T10:57:39;9.77;;;8.77;;
13455;SDS011;6800;50.940;6.940;2024-01-15T11:01:43;11.27;;;8.60;;
13455;SDS011;6800;50.940;6.940;2024-01-15T11:05:48;16.57;;;9.17;;
13455;SDS011;6800;50.940;6.940;2024-01-15T11:09:52;17.70;;;8.30;;
13455;SDS011;6800;50.940;6.940;2024-01-15T11:13:54;9.17;;;7.40;;
13455;SDS011;6800;50.940;6.940;2024-01-15T11:17:58;19.90;;;8.73;;
13455;SDS011;6800;50.940;6.940;2024-01-15T11:22:05;21.70;;;8.80;;
13455;SDS011;6800;50.940;6.940;2024-01-15T11:30:37;11.40;;;7.77;;
13455;SDS011;6800;50.940;6.940;2024-01-15T11:34:57;9.17;;;7.90;;
13455;SDS011;6800;50.940;6.940;2024-01-15T11:43:28;8.67;;;7.63;;
13455;SDS011;6800;50.940;6.940;2024-01-15T11:52:02;10.90;;;9.77;;
13455;SDS011;6800;50.940;6.940;2024-01-15T11:56:08;10.43;;;9.33;;
13455;SDS011;6800;50.940;6.940;2024-01-15T12:00:17;12.80;;;10.30;;
13455;SDS011;6800;50.940;6.940;2024-01-15T12:04:20;12.47;;;11.17;;
13455;SDS011;6800;50.940;6.940;2024-01-15T12:08:22;13.37;;;12.07;;
13455;SDS011;6800;50.940;6.940;2024-01-15T12:12:29;13.53;;;12.13;;
13455;SDS011;6800;50.940;6.940;2024-01-15T12:16:40;15.03;;;12.07;;
13455;SDS011;6800;50.940;6.940;2024-01-15T12:20:42;14.40;;;12.03;;
13455;SDS011;6800;50.940;6.940;2024-01-15T12:24:47;15.20;;;12.83;;
13455;SDS011;6800;50.940;6.940;2024-01-15T12:33:44;17.43;;;11.10;;
13455;SDS011;6800;50.940;6.940;2024-01-15T12:37:48;13.00;;;10.30;;
13455;SDS011;6800;50.940;6.940;2024-01-15T12:41:49;17.00;;;10.70;;
13455;SDS011;6800;50.940;6.940;2024-01-15T12:45:51;16.33;;;9.80;;
13455;SDS011;6800;50.940;6.940;2024-01-15T12:49:53;14.63;;;10.10;;
13455;SDS011;6800;50.940;6.940;2024-01-15T12:54:06;13.57;;;9.80;;
13455;SDS011;6800;50.940;6.940;2024-01-15T12:58:07;15.17;;;9.43;;
13455;SDS011;6800;50.940;6.940;2024-01-15T13:02:11;13.33;;;9.13;;
13455;SDS011;6800;50.940;6.940;2024-01-15T13:06:15;14.20;;;7.73;;
13455;SDS011;6800;50.940;6.940;2024-01-15T13:10:18;11.13;;;8.07;;
13455;SDS011;6800;50.940;6.940;2024-01-15T13:14:19;29.30;;;8.07;;
13455;SDS011;6800;50.940;6.940;2024-01-15T13:18:21;27.23;;;7.20;;
13455;SDS011;6800;50.940;6.940;2024-01-15T13:22:24;14.27;;;6.70;;
13455;SDS011;6800;50.940;6.940;2024-01-15T13:26:34;9.47;;;6.80;;
13455;SDS011;6800;50.940;6.940;2024-01-15T13:30:38;18.03;;;7.37;;
13455;SDS011;6800;50.940;6.940;2024-01-15T13:34:39;25.23;;;8.70;;
13455;SDS011;6800;50.940;6.940;2024-01-15T13:38:43;9.10;;;5.23;;
13455;SDS011;6800;50.940;6.940;2024-01-15T13:42:44;7.00;;;4.83;;
13455;SDS011;6800;50.940;6.940;2024-01-15T13:46:50;7.93;;;4.90;;
13455;SDS011;6800;50.940;6.940;2024-01-15T13:50:51;7.30;;;4.83;;
13455;SDS011;6800;50.940;6.940;2024-01-15T13:54:54;5.90;;;4.20;;
13455;SDS011;6800;50.940;6.940;2024-01-15T13:58:55;5.00;;;3.83;;
13455;SDS011;6800;50.940;6.940;2024-01-15T14:02:57;4.60;;;3.70;;
13455;SDS011;6800;50.940;6.940;2024-01-15T14:06:59;4.23;;;3.40;;
13455;SDS011;6800;50.940;6.940;2024-01-15T14:11:02;5.27;;;3.73;;
13455;SDS011;6800;50.940;6.940;2024-01-15T14:15:07;4.70;;;3.53;;
13455;SDS011;6800;50.940;6.940;2024-01-15T14:19:09;6.03;;;3.70;;
13455;SDS011;6800;50.940;6.940;2024-01-15T14:23:13;4.80;;;4.40;;
13455;SDS011;6800;50.940;6.940;2024-01-15T14:27:15;5.27;;;3.53;;
13455;SDS011;6800;50.940;6.940;2024-01-15T14:31:17;4.87;;;3.90;;
13455;SDS011;6800;50.940;6.940;2024-01-15T14:35:21;5.50;;;3.70;;
13455;SDS011;6800;50.940;6.940;2024-01-15T14:39:22;3.60;;;3.20;;
13455;SDS011;6800;50.940;6.940;2024-01-15T14:43:25;3.43;;;3.13;;
13455;SDS011;6800;50.940;6.940;2024-01-15T14:47:30;4.30;;;3.90;;
13455;SDS011;6800;50.940;6.940;2024-01-15T14:51:33;3.67;;;3.37;;
13455;SDS011;6800;50.940;6.940;2024-01-15T14:55:38;3.73;;;3.43;;
13455;SDS011;6800;50.940;6.940;2024-01-15T14:59:39;4.30;;;4.00;;
13455;SDS011;6800;50.940;6.940;2024-01-15T15:03:42;7.70;;;4.40;;
13455;SDS011;6800;50.940;6.940;2024-01-15T15:07:48;4.60;;;4.20;;
13455;SDS011;6800;50.940;6.940;2024-01-15T15:11:52;4.27;;;3.87;;
13455;SDS011;6800;50.940;6.940;2024-01-15T15:15:54;4.20;;;3.90;;
13455;SDS011;6800;50.940;6.940;2024-01-15T15:19:56;4.10;;;3.80;;
13455;SDS011;6800;50.940;6.940;2024-01-15T15:23:58;4.20;;;3.90;;
13455;SDS011;6800;50.940;6.940;2024-01-15T15:28:02;4.60;;;4.20;;
13455;SDS011;6800;50.940;6.940;2024-01-15T15:32:06;4.20;;;3.60;;
13455;SDS011;6800;50.940;6.940;2024-01-15T15:36:08;3.93;;;3.53;;
13455;SDS011;6800;50.940;6.940;2024-01-15T15:40:10;4.20;;;3.80;;
13455;SDS011;6800;50.940;6.940;2024-01-15T15:44:14;4.63;;;4.30;;
13455;SDS011;6800;50.940;6.940;2024-01-15T15:48:17;4.97;;;4.07;;
13455;SDS011;6800;50.940;6.940;2024-01-15T15:52:19;4.67;;;4.27;;
13455;SDS011;6800;50.940;6.940;2024-01-15T15:56:25;4.30;;;3.97;;
13455;SDS011;6800;50.940;6.940;2024-01-15T16:00:27;4.37;;;4.07;;
13455;SDS011;6800;50.940;6.940;2024-01-15T16:04:29;4.53;;;4.23;;
13455;SDS011;6800;50.940;6.940;2024-01-15T16:08:33;8.77;;;6.90;;
13455;SDS011;6800;50.940;6.940;2024-01-15T16:12:34;5.23;;;4.83;;
13455;SDS011;6800;50.940;6.940;2024-01-15T16:16:37;5.43;;;4.97;;
13455;SDS011;6800;50.940;6.940;2024-01-15T16:20:58;6.07;;;5.57;;
13455;SDS011;6800;50.940;6.940;2024-01-15T16:25:23;6.20;;;5.60;;
13455;SDS011;6800;50.940;6.940;2024-01-15T16:29:25;5.83;;;5.43;;
13455;SDS011;6800;50.940;6.940;2024-01-15T16:33:26;6.13;;;5.60;;
13455;SDS011;6800;50.940;6.940;2024-01-15T16:37:28;5.77;;;5.17;;
13455;SDS011;6800;50.940;6.940;2024-01-15T16:41:30;5.20;;;4.80;;
13455;SDS011;6800;50.940;6.940;2024-01-15T16:45:32;6.10;;;5.60;;
13455;SDS011;6800;50.940;6.940;2024-01-15T16:49:34;6.07;;;5.47;;
13455;SDS011;6800;50.940;6.940;2024-01-15T16:53:39;7.00;;;6.40;;
13455;SDS011;6800;50.940;6.940;2024-01-15T16:57:40;9.63;;;7.80;;
13455;SDS011;6800;50.940;6.940;2024-01-15T17:01:42;13.87;;;9.77;;
13455;SDS011;6800;50.940;6.940;2024-01-15T17:05:45;9.33;;;8.47;;
13455;SDS011;6800;50.940;6.940;2024-01-15T17:09:47;10.07;;;8.17;;
13455;SDS011;6800;50.940;6.940;2024-01-15T17:13:50;8.77;;;7.27;;
13455;SDS011;6800;50.940;6.940;2024-01-15T17:18:04;10.10;;;7.00;;
13455;SDS011;6800;50.940;6.940;2024-01-15T17:22:07;7.80;;;7.00;;
13455;SDS011;6800;50.940;6.940;2024-01-15T17:26:14;8.57;;;7.40;;
13455;SDS011;6800;50.940;6.940;2024-01-15T17:30:18;10.13;;;8.53;;
13455;SDS011;6800;50.940;6.940;2024-01-15T17:34:20;8.37;;;7.57;;
13455;SDS011;6800;50.940;6.940;2024-01-15T17:38:22;9.13;;;7.20;;
13455;SDS011;6800;50.940;6.940;2024-01-15T17:42:30;11.37;;;7.70;;
13455;SDS011;6800;50.940;6.940;2024-01-15T17:46:35;8.60;;;7.50;;
13455;SDS011;6800;50.940;6.940;2024-01-15T17:50:37;13.20;;;8.23;;
13455;SDS011;6800;50.940;6.940;2024-01-15T17:54:40;9.10;;;8.10;;
13455;SDS011;6800;50.940;6.940;2024-01-15T17:58:42;10.43;;;8.20;;
13455;SDS011;6800;50.940;6.940;2024-01-15T18:02:45;10.10;;;7.43;;
13455;SDS011;6800;50.940;6.940;2024-01-15T18:06:47;12.27;;;8.73;;
13455;SDS011;6800;50.940;6.940;2024-01-15T18:10:51;10.50;;;8.07;;
13455;SDS011;6800;50.940;6.940;2024-01-15T18:14:53;11.90;;;8.00;;
13455;SDS011;6800;50.940;6.940;2024-01-15T18:18:55;12.53;;;8.87;;
13455;SDS011;6800;50.940;6.940;2024-01-15T18:22:57;11.63;;;7.70;;
13455;SDS011;6800;50.940;6.940;2024-01-15T18:27:00;7.60;;;6.90;;
13455;SDS011;6800;50.940;6.940;2024-01-15T18:31:05;13.33;;;8.30;;
13455;SDS011;6800;50.940;6.940;2024-01-15T18:35:08;9.90;;;8.00;;
13455;SDS011;6800;50.940;6.940;2024-01-15T18:39:11;13.87;;;9.00;;
13455;SDS011;6800;50.940;6.940;2024-01-15T18:43:13;12.33;;;8.77;;
13455;SDS011;6800;50.940;6.940;2024-01-15T18:47:15;10.60;;;9.07;;
13455;SDS011;6800;50.940;6.940;2024-01-15T18:51:20;11.07;;;7.83;;
13455;SDS011;6800;50.940;6.940;2024-01-15T18:55:26;8.77;;;8.07;;
13455;SDS011;6800;50.940;6.940;2024-01-15T18:59:28;9.83;;;8.00;;
13455;SDS011;6800;50.940;6.940;2024-01-15T19:03:34;9.00;;;7.30;;
13455;SDS011;6800;50.940;6.940;2024-01-15T19:07:41;10.83;;;8.07;;
13455;SDS011;6800;50.940;6.940;2024-01-15T19:11:46;11.20;;;8.73;;
13455;SDS011;6800;50.940;6.940;2024-01-15T19:15:48;12.00;;;8.30;;
13455;SDS011;6800;50.940;6.940;2024-01-15T19:19:50;11.93;;;8.73;;
13455;SDS011;6800;50.940;6.940;2024-01-15T19:23:52;8.80;;;7.83;;
13455;SDS011;6800;50.940;6.940;2024-01-15T19:27:57;13.93;;;9.43;;
13455;SDS011;6800;50.940;6.940;2024-01-15T19:32:04;12.53;;;9.67;;
13455;SDS011;6800;50.940;6.940;2024-01-15T19:36:06;9.80;;;8.80;;
13455;SDS011;6800;50.940;6.940;2024-01-15T19:45:02;11.10;;;9.67;;
13455;SDS011;6800;50.940;6.940;2024-01-15T19:49:06;13.80;;;10.33;;
13455;SDS011;6800;50.940;6.940;2024-01-15T19:53:08;13.40;;;10.60;;
13455;SDS011;6800;50.940;6.940;2024-01-15T19:57:10;13.33;;;11.33;;
13455;SDS011;6800;50.940;6.940;2024-01-15T20:01:12;19.43;;;11.10;;
13455;SDS011;6800;50.940;6.940;2024-01-15T20:05:16;14.57;;;10.87;;
13455;SDS011;6800;50.940;6.940;2024-01-15T20:09:19;13.67;;;10.57;;
13455;SDS011;6800;50.940;6.940;2024-01-15T20:13:21;14.60;;;11.10;;
13455;SDS011;6800;50.940;6.940;2024-01-15T20:17:23;16.10;;;12.30;;
13455;SDS011;6800;50.940;6.940;2024-01-15T20:21:26;19.17;;;13.87;;
13455;SDS011;6800;50.940;6.940;2024-01-15T20:25:28;13.70;;;12.27;;
13455;SDS011;6800;50.940;6.940;2024-01-15T20:29:30;16.93;;;11.60;;
13455;SDS011;6800;50.940;6.940;2024-01-15T20:33:32;16.90;;;10.97;;
13455;SDS011;6800;50.940;6.940;2024-01-15T20:37:34;15.73;;;12.23;;
13455;SDS011;6800;50.940;6.940;2024-01-15T20:41:37;13.27;;;11.33;;
13455;SDS011;6800;50.940;6.940;2024-01-15T20:45:39;17.20;;;11.77;;
13455;SDS011;6800;50.940;6.940;2024-01-15T20:49:41;12.83;;;10.67;;
13455;SDS011;6800;50.940;6.940;2024-01-15T20:53:44;12.90;;;10.27;;
13455;SDS011;6800;50.940;6.940;2024-01-15T20:57:46;14.67;;;9.90;;
13455;SDS011;6800;50.940;6.940;2024-01-15T21:01:47;10.37;;;9.27;;
13455;SDS011;6800;50.940;6.940;2024-01-15T21:05:49;10.37;;;9.00;;
13455;SDS011;6800;50.940;6.940;2024-01-15T21:09:51;12.23;;;8.60;;
13455;SDS011;6800;50.940;6.940;2024-01-15T21:13:58;13.60;;;9.47;;
13455;SDS011;6800;50.940;6.940;2024-01-15T21:18:39;11.17;;;8.20;;
13455;SDS011;6800;50.940;6.940;2024-01-15T21:22:53;13.40;;;8.90;;
13455;SDS011;6800;50.940;6.940;2024-01-15T21:26:55;10.03;;;7.63;;
13455;SDS011;6800;50.940;6.940;2024-01-15T21:30:59;8.00;;;7.20;;
13455;SDS011;6800;50.940;6.940;2024-01-15T21:35:01;10.77;;;7.43;;
13455;SDS011;6800;50.940;6.940;2024-01-15T21:39:03;9.57;;;8.40;;
13455;SDS011;6800;50.940;6.940;2024-01-15T21:43:06;8.77;;;7.90;;
13455;SDS011;6800;50.940;6.940;2024-01-15T21:47:10;9.17;;;8.27;;
13455;SDS011;6800;50.940;6.940;2024-01-15T21:51:12;8.50;;;7.60;;
13455;SDS011;6800;50.940;6.940;2024-01-15T21:55:17;10.10;;;8.93;;
13455;SDS011;6800;50.940;6.940;2024-01-15T21:59:20;9.13;;;8.20;;
13455;SDS011;6800;50.940;6.940;2024-01-15T22:03:23;10.60;;;8.90;;
13455;SDS011;6800;50.940;6.940;2024-01-15T22:07:30;13.13;;;10.03;;
13455;SDS011;6800;50.940;6.940;2024-01-15T22:11:35;10.77;;;9.67;;
13455;SDS011;6800;50.940;6.940;2024-01-15T22:15:37;11.80;;;10.50;;
13455;SDS011;6800;50.940;6.940;2024-01-15T22:19:47;14.20;;;11.07;;
13455;SDS011;6800;50.940;6.940;2024-01-15T22:23:48;12.63;;;11.20;;
13455;SDS011;6800;50.940;6.940;2024-01-15T22:27:51;12.93;;;10.53;;
13455;SDS011;6800;50.940;6.940;2024-01-15T22:31:54;14.40;;;10.30;;
13455;SDS011;6800;50.940;6.940;2024-01-15T22:35:56;14.00;;;10.93;;
13455;SDS011;6800;50.940;6.940;2024-01-15T22:40:00;11.27;;;10.17;;
13455;SDS011;6800;50.940;6.940;2024-01-15T22:44:04;13.07;;;11.17;;
13455;SDS011;6800;50.940;6.940;2024-01-15T22:48:06;12.77;;;11.47;;
13455;SDS011;6800;50.940;6.940;2024-01-15T22:52:08;14.93;;;11.47;;
13455;SDS011;6800;50.940;6.940;2024-01-15T22:56:11;12.73;;;11.53;;
13455;SDS011;6800;50.940;6.940;2024-01-15T23:00:12;14.70;;;12.10;;
13455;SDS011;6800;50.940;6.940;2024-01-15T23:04:27;12.40;;;10.73;;
13455;SDS011;6800;50.940;6.940;2024-01-15T23:08:31;12.07;;;10.60;;
13455;SDS011;6800;50.940;6.940;2024-01-15T23:12:35;12.50;;;10.93;;
13455;SDS011;6800;50.940;6.940;2024-01-15T23:16:42;12.90;;;10.40;;
13455;SDS011;6800;50.940;6.940;2024-01-15T23:20:47;14.73;;;11.60;;
13455;SDS011;6800;50.940;6.940;2024-01-15T23:24:49;16.20;;;11.63;;
13455;SDS011;6800;50.940;6.940;2024-01-15T23:28:51;12.47;;;10.73;;
13455;SDS011;6800;50.940;6.940;2024-01-15T23:32:52;13.97;;;11.47;;
13455;SDS011;6800;50.940;6.940;2024-01-15T23:36:56;12.37;;;10.93;;
13455;SDS011;6800;50.940;6.940;2024-01-15T23:40:58;13.67;;;10.40;;
13455;SDS011;6800;50.940;6.940;2024-01-15T23:45:00;13.30;;;10.27;;
13455;SDS011;6800;50.940;6.940;2024-01-15T23:49:05;13.77;;;10.57;;
13455;SDS011;6800;50.940;6.940;2024-01-15T23:53:08;11.13;;;9.80;;
13455;SDS011;6800;50.940;6.940;2024-01-15T23:57:10;12.40;;;9.93;;
